Holy Cross — WDE7144 — position and weather

sailwx.info

Track history (hours):
 
Tides and Currents Weather Stations Pressure Air Temp Water Temp Dewpoint Dewpoint Depression Visibility Wind Speed Wind Dir Waves Ship Positions

Holy Cross

Owner: Marquette Transportation Company Gulf-Inland, LLC, Jefferson, LA. More information available from US FCC via Universal Licensing System and Coast Guard Vessel Documentation Center.

Last reported at 2018-May-16 11:04 UTC. Time now 2018-May-21 14:43 UTC.
Position N 29°51' W 091°53'.

Length 299 m; draft 3 m.

Type: . MMSI: 367389540.

Date/timePositionNaut miles runAvg speedWind from/ knotsBaromVisibWave heightAir tempDewpointWater temp
2018-May-16 11:04N 29°51' W 091°53'1 3.4
2018-May-16 10:44N 29°51' W 091°55'1 3.4
2018-May-16 10:29N 29°51' W 091°56'52 2.7
2018-May-15 14:56N 29°56' W 092°55'1 2.9
2018-May-15 14:30N 29°56' W 092°57'2 3.5
2018-May-15 14:00N 29°56' W 092°59'2 3.6
2018-May-15 13:30N 29°56' W 093°01'2 3.7
2018-May-15 13:00N 29°56' W 093°03'2 3.6
2018-May-15 12:30N 29°56' W 093°05'2 3.5
2018-May-15 12:00N 29°56' W 093°07'2 3.6
2018-May-15 11:30N 29°56' W 093°09'1 2.9
2018-May-15 11:00N 29°57' W 093°10'2 3.6
2018-May-15 10:30N 29°58' W 093°12'2 3.5
2018-May-15 10:00N 29°60' W 093°13'2 3.3
2018-May-15 09:30N 30°01' W 093°14'2 3.3
2018-May-15 09:00N 30°02' W 093°15'2 3.2
2018-May-15 08:30N 30°04' W 093°16'2 3.8
2018-May-15 08:00N 30°05' W 093°17'1 1.5
2018-May-15 07:30N 30°06' W 093°18'1 1.0
2018-May-15 07:00N 30°06' W 093°18'0 0.1
2018-May-15 06:30N 30°06' W 093°18'0 0.0
2018-May-15 06:00N 30°06' W 093°18'0 0.1
2018-May-15 05:30N 30°06' W 093°18'0 0.1
2018-May-15 04:59N 30°06' W 093°18'0 0.1
2018-May-15 04:30N 30°06' W 093°18'0 0.2
2018-May-15 04:00N 30°06' W 093°18'1 2.6
2018-May-15 03:30N 30°05' W 093°20'2 4.7
2018-May-15 03:00N 30°04' W 093°21'1 2.1
2018-May-15 02:30N 30°04' W 093°23'0 0.2
2018-May-15 02:00N 30°04' W 093°23'1 1.6
2018-May-15 01:30N 30°04' W 093°22'0 0.1
2018-May-15 01:00N 30°04' W 093°22'1 1.7
2018-May-15 00:30N 30°04' W 093°23'0 0.0
2018-May-15 00:00N 30°04' W 093°23'0 0.0
2018-May-14 23:30N 30°04' W 093°23'0 0.0
2018-May-14 23:00N 30°04' W 093°23'0 0.0
2018-May-14 22:30N 30°04' W 093°23'0 0.2
2018-May-14 22:00N 30°04' W 093°23'0 0.4
2018-May-14 21:30N 30°04' W 093°22'1 2.9
2018-May-14 21:00N 30°04' W 093°21'2 4.4
2018-May-14 20:30N 30°06' W 093°19'1 2.9
2018-May-14 20:00N 30°05' W 093°18'0 0.7
2018-May-14 19:30N 30°05' W 093°17'1 1.9
2018-May-14 19:00N 30°04' W 093°16'1 1.7
2018-May-14 18:30N 30°04' W 093°16'0 0.1
2018-May-14 18:00N 30°04' W 093°16'0 0.0
2018-May-14 17:06N 30°04' W 093°16'0 0.0
2018-May-14 17:00N 30°04' W 093°16'0 0.0
2018-May-14 16:30N 30°04' W 093°16'0 0.1
2018-May-14 16:00N 30°04' W 093°16'0 0.1
2018-May-14 15:30N 30°04' W 093°16'0 0.0
2018-May-14 15:00N 30°04' W 093°16'0 0.1
2018-May-14 14:30N 30°04' W 093°16'1 1.4
2018-May-14 14:00N 30°03' W 093°16'2 3.5
2018-May-14 13:30N 30°02' W 093°14'2 3.4
2018-May-14 13:00N 30°00' W 093°14'1 1.1
2018-May-14 12:30N 29°60' W 093°13'0 0.7
2018-May-14 12:00N 29°59' W 093°13'2 3.7
2018-May-14 11:30N 29°58' W 093°11'2 3.8
2018-May-14 11:00N 29°57' W 093°10'2 3.4
2018-May-14 10:29N 29°56' W 093°08'2 3.5
2018-May-14 09:57N 29°56' W 093°06'2 3.6
2018-May-14 09:29N 29°56' W 093°04'2 3.7
2018-May-14 09:00N 29°56' W 093°02'2 3.8
2018-May-14 08:28N 29°56' W 092°60'3 3.6
2018-May-14 07:34N 29°56' W 092°56'0 3.6
2018-May-14 07:26N 29°56' W 092°55'2 3.6
2018-May-14 06:53N 29°57' W 092°53'  
2018-May-09 19:08N 29°50' W 091°58'1 5.2
2018-May-09 19:00N 29°50' W 091°58'3 5.1
2018-May-09 18:30N 29°49' W 092°01'3 5.1
2018-May-09 18:00N 29°49' W 092°04'3 5.3
2018-May-09 17:30N 29°48' W 092°07'3 5.0
2018-May-09 17:00N 29°47' W 092°09'1 2.5
2018-May-09 16:29N 29°47' W 092°11'0 0.3
2018-May-09 16:00N 29°47' W 092°11'1 2.8
2018-May-09 15:30N 29°47' W 092°13'2 3.2
2018-May-09 15:00N 29°48' W 092°14'1 1.3
2018-May-09 14:30N 29°48' W 092°15'0 0.3
2018-May-09 14:00N 29°48' W 092°15'0 0.0
2018-May-09 13:30N 29°48' W 092°15'0 0.0
2018-May-09 13:00N 29°48' W 092°15'0 0.0
2018-May-09 12:30N 29°48' W 092°15'0 0.6
2018-May-09 12:00N 29°48' W 092°15'0 0.6
2018-May-09 11:30N 29°48' W 092°16'1 2.1
2018-May-09 11:00N 29°49' W 092°17'1 2.0
2018-May-09 10:30N 29°50' W 092°18'0 0.1
2018-May-09 10:00N 29°50' W 092°18'0 0.2
2018-May-09 09:30N 29°50' W 092°18'0 0.3
2018-May-09 09:00N 29°50' W 092°18'2 2.0
2018-May-09 08:10N 29°50' W 092°19'0 0.6
2018-May-09 07:58N 29°50' W 092°20'1 2.6
2018-May-09 07:30N 29°51' W 092°21'3 4.4
2018-May-09 06:56N 29°53' W 092°23'2 4.7
2018-May-09 06:29N 29°53' W 092°25'3 4.8
2018-May-09 05:47N 29°54' W 092°29'1 4.9
2018-May-09 05:30N 29°54' W 092°31'2 4.8
2018-May-09 05:00N 29°54' W 092°33'3 4.9
2018-May-09 04:28N 29°55' W 092°36'2 4.8
2018-May-09 04:00N 29°56' W 092°39'1 2.1
2018-May-09 03:30N 29°56' W 092°40'0 0.0
2018-May-09 03:00N 29°56' W 092°40'0 0.0
2018-May-09 02:30N 29°56' W 092°40'0 0.0
2018-May-09 02:00N 29°56' W 092°40'0 0.0
2018-May-09 01:28N 29°56' W 092°40'20 3.6
2018-May-08 19:55N 29°56' W 093°03'1 2.7
2018-May-08 19:28N 29°56' W 093°04'2 3.4
2018-May-08 18:59N 29°56' W 093°06'2 4.1
2018-May-08 18:30N 29°56' W 093°08'2 3.8
2018-May-08 18:00N 29°57' W 093°10'2 3.8
2018-May-08 17:30N 29°58' W 093°12'2 4.1
2018-May-08 17:00N 29°60' W 093°13'2 3.5
2018-May-08 16:30N 30°01' W 093°14'1 2.6
2018-May-08 16:00N 30°02' W 093°15'2 3.5
2018-May-08 15:30N 30°04' W 093°16'2 3.8
2018-May-08 15:00N 30°05' W 093°18'1 1.8
2018-May-08 14:30N 30°06' W 093°18'0 0.1
2018-May-08 14:00N 30°06' W 093°18'0 0.0
2018-May-08 13:30N 30°06' W 093°18'0 0.0
2018-May-08 13:00N 30°06' W 093°18'0 0.1
2018-May-08 12:30N 30°06' W 093°18'0 0.0
2018-May-08 12:00N 30°06' W 093°18'0 0.0
2018-May-08 11:30N 30°06' W 093°18'0 0.0
2018-May-08 11:00N 30°06' W 093°18'0 0.0
2018-May-08 10:30N 30°06' W 093°18'0 0.0
2018-May-08 10:00N 30°06' W 093°18'0 0.0
2018-May-08 09:30N 30°06' W 093°18'0 0.3
2018-May-08 09:00N 30°06' W 093°18'1 1.9
2018-May-08 08:30N 30°06' W 093°19'1 2.2
2018-May-08 08:00N 30°05' W 093°20'1 2.3
2018-May-08 07:30N 30°04' W 093°21'1 2.6
2018-May-08 07:00N 30°04' W 093°22'1 2.6
2018-May-08 06:30N 30°04' W 093°24'2 3.1
2018-May-08 05:59N 30°04' W 093°26'1 3.0
2018-May-08 05:30N 30°04' W 093°27'2 3.1
2018-May-08 05:00N 30°04' W 093°29'1 1.9
2018-May-08 04:24N 30°04' W 093°31'0 0.1
2018-May-08 04:00N 30°04' W 093°31'0 0.1
2018-May-08 03:30N 30°04' W 093°31'0 0.9
2018-May-08 03:00N 30°04' W 093°31'1 1.3
2018-May-08 02:30N 30°04' W 093°32'1 1.1
2018-May-08 01:59N 30°04' W 093°32'1 2.8
2018-May-08 01:30N 30°04' W 093°34'2 4.0
2018-May-08 01:00N 30°04' W 093°36'0 0.0
2018-May-08 00:30N 30°04' W 093°36'0 0.3
2018-May-08 00:00N 30°04' W 093°36'1 2.5
2018-May-07 23:30N 30°04' W 093°35'2 3.0
2018-May-07 23:00N 30°04' W 093°33'2 3.5
2018-May-07 22:30N 30°04' W 093°31'2 4.4
2018-May-07 22:00N 30°04' W 093°28'2 4.7
2018-May-07 21:30N 30°04' W 093°26'2 4.4
2018-May-07 21:00N 30°04' W 093°23'2 3.4
2018-May-07 20:30N 30°04' W 093°21'1 2.6
2018-May-07 20:00N 30°05' W 093°20'2 3.7
2018-May-07 19:30N 30°06' W 093°19'1 1.2
2018-May-07 19:00N 30°06' W 093°18'0 0.1
2018-May-07 18:30N 30°06' W 093°18'0 0.0
2018-May-07 18:00N 30°06' W 093°18'0 0.0
2018-May-07 17:30N 30°06' W 093°18'0 0.0
2018-May-07 17:00N 30°06' W 093°18'0 0.1
2018-May-07 16:30N 30°06' W 093°18'0 0.0
2018-May-07 16:00N 30°06' W 093°18'0 0.0
2018-May-07 15:30N 30°06' W 093°18'0 0.0
2018-May-07 15:00N 30°06' W 093°18'0 0.0
2018-May-07 14:30N 30°06' W 093°18'0 0.0
2018-May-07 13:54N 30°06' W 093°18'0 0.0
2018-May-07 13:30N 30°06' W 093°18'0 0.0
2018-May-07 13:00N 30°06' W 093°18'0 0.0
2018-May-07 12:30N 30°06' W 093°18'0 0.0
2018-May-07 12:00N 30°06' W 093°18'0 0.0
2018-May-07 11:30N 30°06' W 093°18'0 0.0
2018-May-07 11:00N 30°06' W 093°18'0 0.0
2018-May-07 10:30N 30°06' W 093°18'0 0.0
2018-May-07 10:00N 30°06' W 093°18'0 0.0
2018-May-07 09:30N 30°06' W 093°18'0 0.0
2018-May-07 09:00N 30°06' W 093°18'0 0.1
2018-May-07 08:30N 30°06' W 093°18'0 0.1
2018-May-07 08:00N 30°06' W 093°18'0 0.0
2018-May-07 07:30N 30°06' W 093°18'0 0.0
2018-May-07 07:00N 30°06' W 093°18'0 0.0
2018-May-07 06:30N 30°06' W 093°18'0 0.0
2018-May-07 06:00N 30°06' W 093°18'0 0.0
2018-May-07 05:30N 30°06' W 093°18'0 0.0
2018-May-07 05:00N 30°06' W 093°18'0 0.0
2018-May-07 04:30N 30°06' W 093°18'0 0.0
2018-May-07 04:00N 30°06' W 093°18'0 0.0
2018-May-07 03:30N 30°06' W 093°18'0 0.0
2018-May-07 02:25N 30°06' W 093°18'0 0.0
2018-May-07 01:58N 30°06' W 093°18'0 0.0
2018-May-07 01:30N 30°06' W 093°18'0 0.0
2018-May-07 01:00N 30°06' W 093°18'0 0.0
2018-May-07 00:30N 30°06' W 093°18'0 0.0
2018-May-07 00:00N 30°06' W 093°18'0 0.0
2018-May-06 23:30N 30°06' W 093°18'0 0.0
2018-May-06 23:00N 30°06' W 093°18'0 0.0
2018-May-06 22:30N 30°06' W 093°18'0 0.0
2018-May-06 22:00N 30°06' W 093°18'0 0.0
2018-May-06 21:30N 30°06' W 093°18'0 0.0
2018-May-06 21:00N 30°06' W 093°18'0 0.0
2018-May-06 20:30N 30°06' W 093°18'0 0.0
2018-May-06 20:00N 30°06' W 093°18'0 0.2
2018-May-06 19:30N 30°06' W 093°18'1 1.5
2018-May-06 19:00N 30°05' W 093°18'1 1.6
2018-May-06 18:30N 30°05' W 093°17'1 1.7
2018-May-06 18:00N 30°04' W 093°16'1 2.5
2018-May-06 17:30N 30°03' W 093°16'2 3.5
2018-May-06 17:00N 30°02' W 093°14'2 3.9
2018-May-06 16:30N 29°60' W 093°13'2 4.3
2018-May-06 16:00N 29°58' W 093°12'2 4.4
2018-May-06 15:30N 29°57' W 093°10'3 4.0
2018-May-06 14:51N 29°56' W 093°07'5 4.2
2018-May-06 13:37N 29°56' W 093°01'1 4.3
2018-May-06 13:29N 29°56' W 093°00'  
Track history (hours):
 
Tides and Currents Weather Stations Pressure Air Temp Water Temp Dewpoint Dewpoint Depression Visibility Wind Speed Wind Dir Waves Ship Positions

Holy Cross

Owner: Marquette Transportation Company Gulf-Inland, LLC, Jefferson, LA. More information available from US FCC via Universal Licensing System and Coast Guard Vessel Documentation Center.

Last reported at 2018-May-16 11:04 UTC. Time now 2018-May-21 14:43 UTC.
Position N 29°51' W 091°53'.

Length 299 m; draft 3 m.

Type: . MMSI: 367389540.

Date/timePositionNaut miles runAvg speedWind from/ knotsBaromVisibWave heightAir tempDewpointWater temp
2018-May-16 11:04N 29°51' W 091°53'1 3.4
2018-May-16 10:44N 29°51' W 091°55'1 3.4
2018-May-16 10:29N 29°51' W 091°56'52 2.7
2018-May-15 14:56N 29°56' W 092°55'1 2.9
2018-May-15 14:30N 29°56' W 092°57'2 3.5
2018-May-15 14:00N 29°56' W 092°59'2 3.6
2018-May-15 13:30N 29°56' W 093°01'2 3.7
2018-May-15 13:00N 29°56' W 093°03'2 3.6
2018-May-15 12:30N 29°56' W 093°05'2 3.5
2018-May-15 12:00N 29°56' W 093°07'2 3.6
2018-May-15 11:30N 29°56' W 093°09'1 2.9
2018-May-15 11:00N 29°57' W 093°10'2 3.6
2018-May-15 10:30N 29°58' W 093°12'2 3.5
2018-May-15 10:00N 29°60' W 093°13'2 3.3
2018-May-15 09:30N 30°01' W 093°14'2 3.3
2018-May-15 09:00N 30°02' W 093°15'2 3.2
2018-May-15 08:30N 30°04' W 093°16'2 3.8
2018-May-15 08:00N 30°05' W 093°17'1 1.5
2018-May-15 07:30N 30°06' W 093°18'1 1.0
2018-May-15 07:00N 30°06' W 093°18'0 0.1
2018-May-15 06:30N 30°06' W 093°18'0 0.0
2018-May-15 06:00N 30°06' W 093°18'0 0.1
2018-May-15 05:30N 30°06' W 093°18'0 0.1
2018-May-15 04:59N 30°06' W 093°18'0 0.1
2018-May-15 04:30N 30°06' W 093°18'0 0.2
2018-May-15 04:00N 30°06' W 093°18'1 2.6
2018-May-15 03:30N 30°05' W 093°20'2 4.7
2018-May-15 03:00N 30°04' W 093°21'1 2.1
2018-May-15 02:30N 30°04' W 093°23'0 0.2
2018-May-15 02:00N 30°04' W 093°23'1 1.6
2018-May-15 01:30N 30°04' W 093°22'0 0.1
2018-May-15 01:00N 30°04' W 093°22'1 1.7
2018-May-15 00:30N 30°04' W 093°23'0 0.0
2018-May-15 00:00N 30°04' W 093°23'0 0.0
2018-May-14 23:30N 30°04' W 093°23'0 0.0
2018-May-14 23:00N 30°04' W 093°23'0 0.0
2018-May-14 22:30N 30°04' W 093°23'0 0.2
2018-May-14 22:00N 30°04' W 093°23'0 0.4
2018-May-14 21:30N 30°04' W 093°22'1 2.9
2018-May-14 21:00N 30°04' W 093°21'2 4.4
2018-May-14 20:30N 30°06' W 093°19'1 2.9
2018-May-14 20:00N 30°05' W 093°18'0 0.7
2018-May-14 19:30N 30°05' W 093°17'1 1.9
2018-May-14 19:00N 30°04' W 093°16'1 1.7
2018-May-14 18:30N 30°04' W 093°16'0 0.1
2018-May-14 18:00N 30°04' W 093°16'0 0.0
2018-May-14 17:06N 30°04' W 093°16'0 0.0
2018-May-14 17:00N 30°04' W 093°16'0 0.0
2018-May-14 16:30N 30°04' W 093°16'0 0.1
2018-May-14 16:00N 30°04' W 093°16'0 0.1
2018-May-14 15:30N 30°04' W 093°16'0 0.0
2018-May-14 15:00N 30°04' W 093°16'0 0.1
2018-May-14 14:30N 30°04' W 093°16'1 1.4
2018-May-14 14:00N 30°03' W 093°16'2 3.5
2018-May-14 13:30N 30°02' W 093°14'2 3.4
2018-May-14 13:00N 30°00' W 093°14'1 1.1
2018-May-14 12:30N 29°60' W 093°13'0 0.7
2018-May-14 12:00N 29°59' W 093°13'2 3.7
2018-May-14 11:30N 29°58' W 093°11'2 3.8
2018-May-14 11:00N 29°57' W 093°10'2 3.4
2018-May-14 10:29N 29°56' W 093°08'2 3.5
2018-May-14 09:57N 29°56' W 093°06'2 3.6
2018-May-14 09:29N 29°56' W 093°04'2 3.7
2018-May-14 09:00N 29°56' W 093°02'2 3.8
2018-May-14 08:28N 29°56' W 092°60'3 3.6
2018-May-14 07:34N 29°56' W 092°56'0 3.6
2018-May-14 07:26N 29°56' W 092°55'2 3.6
2018-May-14 06:53N 29°57' W 092°53'  
2018-May-09 19:08N 29°50' W 091°58'1 5.2
2018-May-09 19:00N 29°50' W 091°58'3 5.1
2018-May-09 18:30N 29°49' W 092°01'3 5.1
2018-May-09 18:00N 29°49' W 092°04'3 5.3
2018-May-09 17:30N 29°48' W 092°07'3 5.0
2018-May-09 17:00N 29°47' W 092°09'1 2.5
2018-May-09 16:29N 29°47' W 092°11'0 0.3
2018-May-09 16:00N 29°47' W 092°11'1 2.8
2018-May-09 15:30N 29°47' W 092°13'2 3.2
2018-May-09 15:00N 29°48' W 092°14'1 1.3
2018-May-09 14:30N 29°48' W 092°15'0 0.3
2018-May-09 14:00N 29°48' W 092°15'0 0.0
2018-May-09 13:30N 29°48' W 092°15'0 0.0
2018-May-09 13:00N 29°48' W 092°15'0 0.0
2018-May-09 12:30N 29°48' W 092°15'0 0.6
2018-May-09 12:00N 29°48' W 092°15'0 0.6
2018-May-09 11:30N 29°48' W 092°16'1 2.1
2018-May-09 11:00N 29°49' W 092°17'1 2.0
2018-May-09 10:30N 29°50' W 092°18'0 0.1
2018-May-09 10:00N 29°50' W 092°18'0 0.2
2018-May-09 09:30N 29°50' W 092°18'0 0.3
2018-May-09 09:00N 29°50' W 092°18'2 2.0
2018-May-09 08:10N 29°50' W 092°19'0 0.6
2018-May-09 07:58N 29°50' W 092°20'1 2.6
2018-May-09 07:30N 29°51' W 092°21'3 4.4
2018-May-09 06:56N 29°53' W 092°23'2 4.7
2018-May-09 06:29N 29°53' W 092°25'3 4.8
2018-May-09 05:47N 29°54' W 092°29'1 4.9
2018-May-09 05:30N 29°54' W 092°31'2 4.8
2018-May-09 05:00N 29°54' W 092°33'3 4.9
2018-May-09 04:28N 29°55' W 092°36'2 4.8
2018-May-09 04:00N 29°56' W 092°39'1 2.1
2018-May-09 03:30N 29°56' W 092°40'0 0.0
2018-May-09 03:00N 29°56' W 092°40'0 0.0
2018-May-09 02:30N 29°56' W 092°40'0 0.0
2018-May-09 02:00N 29°56' W 092°40'0 0.0
2018-May-09 01:28N 29°56' W 092°40'20 3.6
2018-May-08 19:55N 29°56' W 093°03'1 2.7
2018-May-08 19:28N 29°56' W 093°04'2 3.4
2018-May-08 18:59N 29°56' W 093°06'2 4.1
2018-May-08 18:30N 29°56' W 093°08'2 3.8
2018-May-08 18:00N 29°57' W 093°10'2 3.8
2018-May-08 17:30N 29°58' W 093°12'2 4.1
2018-May-08 17:00N 29°60' W 093°13'2 3.5
2018-May-08 16:30N 30°01' W 093°14'1 2.6
2018-May-08 16:00N 30°02' W 093°15'2 3.5
2018-May-08 15:30N 30°04' W 093°16'2 3.8
2018-May-08 15:00N 30°05' W 093°18'1 1.8
2018-May-08 14:30N 30°06' W 093°18'0 0.1
2018-May-08 14:00N 30°06' W 093°18'0 0.0
2018-May-08 13:30N 30°06' W 093°18'0 0.0
2018-May-08 13:00N 30°06' W 093°18'0 0.1
2018-May-08 12:30N 30°06' W 093°18'0 0.0
2018-May-08 12:00N 30°06' W 093°18'0 0.0
2018-May-08 11:30N 30°06' W 093°18'0 0.0
2018-May-08 11:00N 30°06' W 093°18'0 0.0
2018-May-08 10:30N 30°06' W 093°18'0 0.0
2018-May-08 10:00N 30°06' W 093°18'0 0.0
2018-May-08 09:30N 30°06' W 093°18'0 0.3
2018-May-08 09:00N 30°06' W 093°18'1 1.9
2018-May-08 08:30N 30°06' W 093°19'1 2.2
2018-May-08 08:00N 30°05' W 093°20'1 2.3
2018-May-08 07:30N 30°04' W 093°21'1 2.6
2018-May-08 07:00N 30°04' W 093°22'1 2.6
2018-May-08 06:30N 30°04' W 093°24'2 3.1
2018-May-08 05:59N 30°04' W 093°26'1 3.0
2018-May-08 05:30N 30°04' W 093°27'2 3.1
2018-May-08 05:00N 30°04' W 093°29'1 1.9
2018-May-08 04:24N 30°04' W 093°31'0 0.1
2018-May-08 04:00N 30°04' W 093°31'0 0.1
2018-May-08 03:30N 30°04' W 093°31'0 0.9
2018-May-08 03:00N 30°04' W 093°31'1 1.3
2018-May-08 02:30N 30°04' W 093°32'1 1.1
2018-May-08 01:59N 30°04' W 093°32'1 2.8
2018-May-08 01:30N 30°04' W 093°34'2 4.0
2018-May-08 01:00N 30°04' W 093°36'0 0.0
2018-May-08 00:30N 30°04' W 093°36'0 0.3
2018-May-08 00:00N 30°04' W 093°36'1 2.5
2018-May-07 23:30N 30°04' W 093°35'2 3.0
2018-May-07 23:00N 30°04' W 093°33'2 3.5
2018-May-07 22:30N 30°04' W 093°31'2 4.4
2018-May-07 22:00N 30°04' W 093°28'2 4.7
2018-May-07 21:30N 30°04' W 093°26'2 4.4
2018-May-07 21:00N 30°04' W 093°23'2 3.4
2018-May-07 20:30N 30°04' W 093°21'1 2.6
2018-May-07 20:00N 30°05' W 093°20'2 3.7
2018-May-07 19:30N 30°06' W 093°19'1 1.2
2018-May-07 19:00N 30°06' W 093°18'0 0.1
2018-May-07 18:30N 30°06' W 093°18'0 0.0
2018-May-07 18:00N 30°06' W 093°18'0 0.0
2018-May-07 17:30N 30°06' W 093°18'0 0.0
2018-May-07 17:00N 30°06' W 093°18'0 0.1
2018-May-07 16:30N 30°06' W 093°18'0 0.0
2018-May-07 16:00N 30°06' W 093°18'0 0.0
2018-May-07 15:30N 30°06' W 093°18'0 0.0
2018-May-07 15:00N 30°06' W 093°18'0 0.0
2018-May-07 14:30N 30°06' W 093°18'0 0.0
2018-May-07 13:54N 30°06' W 093°18'0 0.0
2018-May-07 13:30N 30°06' W 093°18'0 0.0
2018-May-07 13:00N 30°06' W 093°18'0 0.0
2018-May-07 12:30N 30°06' W 093°18'0 0.0
2018-May-07 12:00N 30°06' W 093°18'0 0.0
2018-May-07 11:30N 30°06' W 093°18'0 0.0
2018-May-07 11:00N 30°06' W 093°18'0 0.0
2018-May-07 10:30N 30°06' W 093°18'0 0.0
2018-May-07 10:00N 30°06' W 093°18'0 0.0
2018-May-07 09:30N 30°06' W 093°18'0 0.0
2018-May-07 09:00N 30°06' W 093°18'0 0.1
2018-May-07 08:30N 30°06' W 093°18'0 0.1
2018-May-07 08:00N 30°06' W 093°18'0 0.0
2018-May-07 07:30N 30°06' W 093°18'0 0.0
2018-May-07 07:00N 30°06' W 093°18'0 0.0
2018-May-07 06:30N 30°06' W 093°18'0 0.0
2018-May-07 06:00N 30°06' W 093°18'0 0.0
2018-May-07 05:30N 30°06' W 093°18'0 0.0
2018-May-07 05:00N 30°06' W 093°18'0 0.0
2018-May-07 04:30N 30°06' W 093°18'0 0.0
2018-May-07 04:00N 30°06' W 093°18'0 0.0
2018-May-07 03:30N 30°06' W 093°18'0 0.0
2018-May-07 02:25N 30°06' W 093°18'0 0.0
2018-May-07 01:58N 30°06' W 093°18'0 0.0
2018-May-07 01:30N 30°06' W 093°18'0 0.0
2018-May-07 01:00N 30°06' W 093°18'0 0.0
2018-May-07 00:30N 30°06' W 093°18'0 0.0
2018-May-07 00:00N 30°06' W 093°18'0 0.0
2018-May-06 23:30N 30°06' W 093°18'0 0.0
2018-May-06 23:00N 30°06' W 093°18'0 0.0
2018-May-06 22:30N 30°06' W 093°18'0 0.0
2018-May-06 22:00N 30°06' W 093°18'0 0.0
2018-May-06 21:30N 30°06' W 093°18'0 0.0
2018-May-06 21:00N 30°06' W 093°18'0 0.0
2018-May-06 20:30N 30°06' W 093°18'0 0.0
2018-May-06 20:00N 30°06' W 093°18'0 0.2
2018-May-06 19:30N 30°06' W 093°18'1 1.5
2018-May-06 19:00N 30°05' W 093°18'1 1.6
2018-May-06 18:30N 30°05' W 093°17'1 1.7
2018-May-06 18:00N 30°04' W 093°16'1 2.5
2018-May-06 17:30N 30°03' W 093°16'2 3.5
2018-May-06 17:00N 30°02' W 093°14'2 3.9
2018-May-06 16:30N 29°60' W 093°13'2 4.3
2018-May-06 16:00N 29°58' W 093°12'2 4.4
2018-May-06 15:30N 29°57' W 093°10'3 4.0
2018-May-06 14:51N 29°56' W 093°07'5 4.2
2018-May-06 13:37N 29°56' W 093°01'1 4.3
2018-May-06 13:29N 29°56' W 093°00'  

Dump ship's entire track history